Morrison, Colorado
Current Conditions -  °F | °C
As of 8:49 AM on Thursday 30 Oct 2014 (Local Time) from KBJC Reporting Station
Few Clouds Few Clouds  
Wind Chill: 50°   Ceiling: Unl
Heat Index: 50°   Visibility: 50mi
Dew Point: 27°   Wind: 0mph
Humidity: 40%   Direction: NA
Pressure: 30.4"   Gusts: NA
Location:  39.65°N, 105.19°W
Report Text: KBJC 301449Z 00000KT 50SM FEW070 10/M03 A3040
Loading
Personal Weather Stations






























Interactive Weather Map
Tropical Storm Tracking
New forecast layout! Learn more

10-Day Weather Forecast

Advertisements
Track Severe Weather on mobile